Time;durP1;ratioP1;P1;durP2;ratioP2;P2;SDS_P1;SDS_P2;PMS_P1;PMS_P2;Temp;Humidity;BMP_temperature;BMP_pressure;BME280_temperature;BME280_humidity;BME280_pressure;Samples;Min_cycle;Max_cycle;Signal;HPM_P1;HPM_P2
2022/05/13 00:01:29;;;;;;;;;;;11.70;99.90;;;;;;5032517;28;19958;-70
2022/05/13 00:03:55;;;;;;;;;;;11.70;99.90;;;;;;5033611;28;19956;-70
2022/05/13 00:06:20;;;;;;;;;;;11.70;99.90;;;;;;5034735;28;19913;-69
2022/05/13 00:08:46;;;;;;;;;;;11.70;99.90;;;;;;5026316;28;20331;-70
2022/05/13 00:11:12;;;;;;;;;;;11.80;99.90;;;;;;5036227;28;20313;-70
2022/05/13 00:13:37;;;;;;;;;;;11.70;99.90;;;;;;5034934;28;19929;-70
2022/05/13 00:16:04;;;;;;;;;;;11.80;99.90;;;;;;5034703;28;20204;-70
2022/05/13 00:18:29;;;;;;;;;;;11.80;99.90;;;;;;5033203;28;20047;-70
2022/05/13 00:20:58;;;;;;;;;;;11.80;99.90;;;;;;5035427;28;20566;-72
2022/05/13 00:23:25;;;;;;;;;;;11.80;99.90;;;;;;5035913;28;20300;-70
2022/05/13 00:25:51;;;;;;;;;;;11.90;99.90;;;;;;5034548;28;19939;-69
2022/05/13 00:28:16;;;;;;;;;;;11.90;99.90;;;;;;5018415;28;19917;-69
2022/05/13 00:30:43;;;;;;;;;;;11.80;99.90;;;;;;5015920;28;19921;-70
2022/05/13 00:33:11;;;;;;;;;;;11.90;99.90;;;;;;5015954;28;19909;-70
2022/05/13 00:35:38;;;;;;;;;;;11.90;99.90;;;;;;5029472;28;19944;-69
2022/05/13 00:38:03;;;;;;;;;;;11.90;99.90;;;;;;5066309;28;19913;-70
2022/05/13 00:40:29;;;;;;;;;;;11.90;99.90;;;;;;5035612;28;19963;-70
2022/05/13 00:43:00;;;;;;;;;;;11.90;99.90;;;;;;5035477;28;19913;-70
2022/05/13 00:45:25;;;;;;;;;;;11.90;99.90;;;;;;5034000;28;20274;-70
2022/05/13 00:47:51;;;;;;;;;;;11.80;99.90;;;;;;5030072;28;19914;-69
2022/05/13 00:50:17;;;;;;;;;;;11.80;99.90;;;;;;5025175;28;19925;-70
2022/05/13 00:52:45;;;;;;;;;;;11.80;99.90;;;;;;5035438;28;19916;-70
2022/05/13 00:55:13;;;;;;;;;;;11.80;99.90;;;;;;5032522;28;19913;-70
2022/05/13 00:57:39;;;;;;;;;;;11.90;99.90;;;;;;5028642;28;20330;-69
2022/05/13 01:00:08;;;;;;;;;;;11.80;99.90;;;;;;5034787;28;19954;-70
2022/05/13 01:02:35;;;;;;;;;;;11.90;99.90;;;;;;5025572;28;20272;-70
2022/05/13 01:05:05;;;;;;;;;;;11.80;99.90;;;;;;5025810;28;19920;-70
2022/05/13 01:07:31;;;;;;;;;;;11.90;99.90;;;;;;5026239;28;19909;-70
2022/05/13 01:09:58;;;;;;;;;;;11.90;99.90;;;;;;5035305;28;19967;-70
2022/05/13 01:12:33;;;;;;;;;;;11.90;99.90;;;;;;5033318;28;19913;-69
2022/05/13 01:15:01;;;;;;;;;;;11.90;99.90;;;;;;5034686;28;19917;-69
2022/05/13 01:20:17;;;;;;;;;;;11.90;99.90;;;;;;5035315;28;19916;-70
2022/05/13 01:22:48;;;;;;;;;;;11.90;99.90;;;;;;5031476;28;19969;-69
2022/05/13 01:25:16;;;;;;;;;;;11.90;99.90;;;;;;5034076;28;20276;-70
2022/05/13 01:27:42;;;;;;;;;;;11.90;99.90;;;;;;5035510;28;19945;-70
2022/05/13 01:30:09;;;;;;;;;;;11.90;99.90;;;;;;5034896;28;19917;-69
2022/05/13 01:32:35;;;;;;;;;;;12.00;99.90;;;;;;5033382;28;19913;-70
2022/05/13 01:35:00;;;;;;;;;;;12.00;99.90;;;;;;5036064;28;20208;-69
2022/05/13 01:37:26;;;;;;;;;;;12.00;99.90;;;;;;5055307;28;20292;-69
2022/05/13 01:39:52;;;;;;;;;;;12.00;99.90;;;;;;5055139;28;20332;-70
2022/05/13 01:42:18;;;;;;;;;;;12.00;99.90;;;;;;5056984;28;20726;-69
2022/05/13 01:44:43;;;;;;;;;;;12.00;99.90;;;;;;5035178;28;19913;-70
2022/05/13 01:47:09;;;;;;;;;;;12.00;99.90;;;;;;5036156;28;20263;-74
2022/05/13 01:49:34;;;;;;;;;;;11.90;99.90;;;;;;5037379;28;19917;-69
2022/05/13 01:52:00;;;;;;;;;;;11.90;99.90;;;;;;5038607;28;19909;-70
2022/05/13 01:54:25;;;;;;;;;;;11.90;99.90;;;;;;5037686;28;19992;-69
2022/05/13 01:56:51;;;;;;;;;;;12.00;99.90;;;;;;5038606;28;19971;-69
2022/05/13 01:59:17;;;;;;;;;;;12.00;99.90;;;;;;5038567;28;19917;-70
2022/05/13 02:01:42;;;;;;;;;;;12.00;99.90;;;;;;5037984;28;20036;-69
2022/05/13 02:04:08;;;;;;;;;;;12.10;99.90;;;;;;5038000;28;20301;-70
2022/05/13 02:06:34;;;;;;;;;;;12.10;99.90;;;;;;5036755;28;20033;-70
2022/05/13 02:09:00;;;;;;;;;;;12.10;99.90;;;;;;5037245;28;20019;-70
2022/05/13 02:11:27;;;;;;;;;;;12.00;99.90;;;;;;5036670;28;20056;-70
2022/05/13 02:13:54;;;;;;;;;;;12.00;99.90;;;;;;5036595;28;19921;-69
2022/05/13 02:16:20;;;;;;;;;;;12.00;99.90;;;;;;5036983;28;20019;-71
2022/05/13 02:18:45;;;;;;;;;;;12.10;99.90;;;;;;5036962;28;19998;-70
2022/05/13 02:21:11;;;;;;;;;;;12.10;99.90;;;;;;5038106;28;20297;-70
2022/05/13 02:23:37;;;;;;;;;;;12.10;99.90;;;;;;5037431;28;19913;-70
2022/05/13 02:26:05;;;;;;;;;;;12.20;99.90;;;;;;5037396;28;20000;-70
2022/05/13 02:28:30;;;;;;;;;;;12.20;99.90;;;;;;5068760;28;19917;-70
2022/05/13 02:30:56;;;;;;;;;;;12.20;99.90;;;;;;5036205;28;19940;-70
2022/05/13 02:33:22;;;;;;;;;;;12.20;99.90;;;;;;5036933;28;19914;-70
2022/05/13 02:35:48;;;;;;;;;;;12.20;99.90;;;;;;5036091;28;19913;-70
2022/05/13 02:38:15;;;;;;;;;;;12.20;99.90;;;;;;5037938;28;20019;-70
2022/05/13 02:43:25;;;;;;;;;;;12.10;99.90;;;;;;5036049;28;19939;-70
2022/05/13 02:45:51;;;;;;;;;;;12.00;99.90;;;;;;5036057;28;19999;-70
2022/05/13 02:48:17;;;;;;;;;;;12.00;99.90;;;;;;5036585;28;20339;-72
2022/05/13 02:50:42;;;;;;;;;;;11.90;99.90;;;;;;5036976;28;19913;-70
2022/05/13 02:53:08;;;;;;;;;;;11.90;99.90;;;;;;5032958;28;19929;-69
2022/05/13 02:55:34;;;;;;;;;;;11.90;99.90;;;;;;5034414;28;19924;-69
2022/05/13 02:57:59;;;;;;;;;;;11.90;99.90;;;;;;5037782;28;19958;-70
2022/05/13 03:00:25;;;;;;;;;;;11.80;99.90;;;;;;5036548;28;19909;-69
2022/05/13 03:02:50;;;;;;;;;;;11.70;99.90;;;;;;5032704;28;20485;-69
2022/05/13 03:05:16;;;;;;;;;;;11.70;99.90;;;;;;5028290;28;20275;-73
2022/05/13 03:07:41;;;;;;;;;;;11.60;99.90;;;;;;5027530;28;19925;-70
2022/05/13 03:10:08;;;;;;;;;;;11.60;99.90;;;;;;5029804;28;19927;-70
2022/05/13 03:12:33;;;;;;;;;;;11.50;99.90;;;;;;5026791;28;19996;-69
2022/05/13 03:14:59;;;;;;;;;;;11.50;99.90;;;;;;5029728;28;20016;-73
2022/05/13 03:17:24;;;;;;;;;;;11.50;99.90;;;;;;5024546;28;19960;-69
2022/05/13 03:19:50;;;;;;;;;;;11.60;99.90;;;;;;5025319;28;20282;-69
2022/05/13 03:22:16;;;;;;;;;;;11.60;99.90;;;;;;5034896;28;20440;-69
2022/05/13 03:24:42;;;;;;;;;;;11.60;99.90;;;;;;5035773;28;19920;-69
2022/05/13 03:27:07;;;;;;;;;;;11.60;99.90;;;;;;5034258;28;19913;-69
2022/05/13 03:29:35;;;;;;;;;;;11.60;99.90;;;;;;5030766;28;19960;-69
2022/05/13 03:32:02;;;;;;;;;;;11.60;99.90;;;;;;5031326;28;19917;-70
2022/05/13 03:34:27;;;;;;;;;;;11.60;99.90;;;;;;5033630;28;19943;-69
2022/05/13 03:36:54;;;;;;;;;;;11.60;99.90;;;;;;5032958;28;19916;-69
2022/05/13 03:39:19;;;;;;;;;;;11.60;99.90;;;;;;5034605;28;19971;-69
2022/05/13 03:41:45;;;;;;;;;;;11.50;99.90;;;;;;5031696;28;20319;-70
2022/05/13 03:44:11;;;;;;;;;;;11.50;99.90;;;;;;5033612;28;19913;-70
2022/05/13 03:46:36;;;;;;;;;;;11.60;99.90;;;;;;5060917;28;19936;-70
2022/05/13 03:49:02;;;;;;;;;;;11.50;99.90;;;;;;5032536;28;19913;-73
2022/05/13 03:51:28;;;;;;;;;;;11.60;99.90;;;;;;5031193;28;19920;-70
2022/05/13 03:53:54;;;;;;;;;;;11.60;99.90;;;;;;5033862;28;20335;-69
2022/05/13 03:56:19;;;;;;;;;;;11.60;99.90;;;;;;5032181;28;19921;-69
2022/05/13 03:58:45;;;;;;;;;;;11.60;99.90;;;;;;5031208;28;19917;-70
2022/05/13 04:01:11;;;;;;;;;;;11.60;99.90;;;;;;5033651;28;19913;-69
2022/05/13 04:03:36;;;;;;;;;;;11.60;99.90;;;;;;5032404;28;20356;-69
2022/05/13 04:08:58;;;;;;;;;;;11.60;99.90;;;;;;5032668;28;20244;-70
2022/05/13 04:11:27;;;;;;;;;;;11.60;99.90;;;;;;5028630;28;19913;-70
2022/05/13 04:16:37;;;;;;;;;;;11.60;99.90;;;;;;5029282;28;19975;-69
2022/05/13 04:19:04;;;;;;;;;;;11.60;99.90;;;;;;5033717;28;19921;-69
2022/05/13 04:21:32;;;;;;;;;;;11.70;99.90;;;;;;5031363;28;20363;-70
2022/05/13 04:23:58;;;;;;;;;;;11.70;99.90;;;;;;5032173;28;19999;-70
2022/05/13 04:26:24;;;;;;;;;;;11.80;99.90;;;;;;5031485;28;19916;-72
2022/05/13 04:28:51;;;;;;;;;;;11.80;99.90;;;;;;5033778;28;20027;-70
2022/05/13 04:31:18;;;;;;;;;;;11.80;99.90;;;;;;5034679;28;19924;-70
2022/05/13 04:33:44;;;;;;;;;;;11.80;99.90;;;;;;5031716;28;19953;-70
2022/05/13 04:36:09;;;;;;;;;;;11.80;99.90;;;;;;5032157;28;19956;-70
2022/05/13 04:38:35;;;;;;;;;;;11.90;99.90;;;;;;5028802;28;20320;-70
2022/05/13 04:42:49;;;;;;;;;;;11.90;99.90;;;;;;5035475;28;19909;-70
2022/05/13 04:43:47;;;;;;;;;;;12.00;99.90;;;;;;5035507;28;19920;-70
2022/05/13 04:46:12;;;;;;;;;;;11.90;99.90;;;;;;5035842;28;20305;-70
2022/05/13 04:48:38;;;;;;;;;;;12.00;99.90;;;;;;5033639;28;19913;-70
2022/05/13 04:51:03;;;;;;;;;;;12.00;99.90;;;;;;5030500;28;19928;-70
2022/05/13 04:53:30;;;;;;;;;;;12.20;99.90;;;;;;5014773;28;19921;-70
2022/05/13 04:55:56;;;;;;;;;;;12.20;99.90;;;;;;5015482;28;20000;-69
2022/05/13 04:58:22;;;;;;;;;;;12.30;99.90;;;;;;5027523;28;19921;-69
2022/05/13 05:00:49;;;;;;;;;;;12.40;99.90;;;;;;5033720;28;19924;-70
2022/05/13 05:03:15;;;;;;;;;;;12.50;99.90;;;;;;5035306;28;19909;-70
2022/05/13 05:05:43;;;;;;;;;;;12.50;99.90;;;;;;5032114;28;20587;-70
2022/05/13 05:08:09;;;;;;;;;;;12.60;99.90;;;;;;5035618;28;19920;-69
2022/05/13 05:10:35;;;;;;;;;;;12.70;99.90;;;;;;5027884;28;20439;-69
2022/05/13 05:13:00;;;;;;;;;;;12.70;99.90;;;;;;5015470;28;19945;-69
2022/05/13 05:15:26;;;;;;;;;;;12.70;99.90;;;;;;5027889;28;20346;-70
2022/05/13 05:17:52;;;;;;;;;;;12.80;99.90;;;;;;5035963;28;19921;-70
2022/05/13 05:20:18;;;;;;;;;;;12.80;99.90;;;;;;5036372;28;19925;-69
2022/05/13 05:22:46;;;;;;;;;;;12.80;99.90;;;;;;5039095;28;20251;-70
2022/05/13 05:25:14;;;;;;;;;;;12.90;99.90;;;;;;5036822;28;19962;-70
2022/05/13 05:27:41;;;;;;;;;;;12.80;99.90;;;;;;5039197;28;20315;-70
2022/05/13 05:30:07;;;;;;;;;;;12.90;99.90;;;;;;5038103;28;19913;-69
2022/05/13 05:32:32;;;;;;;;;;;12.90;99.90;;;;;;5038987;28;19909;-69
2022/05/13 05:34:58;;;;;;;;;;;13.00;99.90;;;;;;5036608;28;19959;-69
2022/05/13 05:37:24;;;;;;;;;;;13.00;99.90;;;;;;5035403;28;19921;-69
2022/05/13 05:39:50;;;;;;;;;;;13.00;99.90;;;;;;5038322;28;20208;-69
2022/05/13 05:42:15;;;;;;;;;;;13.00;99.90;;;;;;5037011;28;19979;-69
2022/05/13 05:44:41;;;;;;;;;;;13.10;99.90;;;;;;5038896;28;19963;-70
2022/05/13 05:47:06;;;;;;;;;;;13.10;99.90;;;;;;5037350;28;19917;-69
2022/05/13 05:49:32;;;;;;;;;;;13.10;99.90;;;;;;5036815;28;19913;-69
2022/05/13 05:51:58;;;;;;;;;;;13.20;99.90;;;;;;5055699;28;19991;-70
2022/05/13 05:57:13;;;;;;;;;;;13.20;99.90;;;;;;5055043;28;20235;-73
2022/05/13 05:59:39;;;;;;;;;;;13.30;99.90;;;;;;5036750;28;19948;-69
2022/05/13 06:02:06;;;;;;;;;;;13.20;99.90;;;;;;5026823;28;19933;-69
2022/05/13 06:04:31;;;;;;;;;;;13.30;99.90;;;;;;5018682;28;19944;-69
2022/05/13 06:06:57;;;;;;;;;;;13.20;99.90;;;;;;5018651;28;19909;-69
2022/05/13 06:09:22;;;;;;;;;;;13.30;99.90;;;;;;5028038;28;19959;-70
2022/05/13 06:11:48;;;;;;;;;;;13.30;99.90;;;;;;5062963;28;20001;-69
2022/05/13 06:14:13;;;;;;;;;;;13.40;99.90;;;;;;5017179;28;19921;-69
2022/05/13 06:16:39;;;;;;;;;;;13.50;99.90;;;;;;5053428;28;19949;-70
2022/05/13 06:19:05;;;;;;;;;;;13.50;99.90;;;;;;5032322;28;20024;-69
2022/05/13 06:21:35;;;;;;;;;;;13.60;99.90;;;;;;5035442;28;19910;-69
2022/05/13 06:24:01;;;;;;;;;;;13.50;99.90;;;;;;5038398;28;19913;-70
2022/05/13 06:26:27;;;;;;;;;;;13.60;99.90;;;;;;5038077;28;19996;-69
2022/05/13 06:28:53;;;;;;;;;;;13.60;99.90;;;;;;5036252;28;20216;-69
2022/05/13 06:31:19;;;;;;;;;;;13.70;99.90;;;;;;5033371;28;19921;-69
2022/05/13 06:33:45;;;;;;;;;;;13.80;99.90;;;;;;5037991;28;19935;-69
2022/05/13 06:36:11;;;;;;;;;;;13.80;99.90;;;;;;5038059;28;19963;-69
2022/05/13 06:38:36;;;;;;;;;;;13.90;99.90;;;;;;5033763;28;19956;-69
2022/05/13 06:41:02;;;;;;;;;;;13.90;99.90;;;;;;5034734;28;19917;-69
2022/05/13 06:43:27;;;;;;;;;;;13.90;99.90;;;;;;5037605;28;20308;-69
2022/05/13 06:45:53;;;;;;;;;;;14.00;99.90;;;;;;5031422;28;19921;-69
2022/05/13 06:48:19;;;;;;;;;;;14.10;99.90;;;;;;5023828;28;20190;-72
2022/05/13 06:50:46;;;;;;;;;;;14.20;99.90;;;;;;5031879;28;19923;-69
2022/05/13 06:53:12;;;;;;;;;;;14.20;99.90;;;;;;5027522;28;19921;-69
2022/05/13 06:55:39;;;;;;;;;;;14.30;99.90;;;;;;5033222;28;19958;-69
2022/05/13 06:58:05;;;;;;;;;;;14.40;99.90;;;;;;5032932;28;19917;-69
2022/05/13 07:00:31;;;;;;;;;;;14.50;99.90;;;;;;5031771;28;19936;-69
2022/05/13 07:02:56;;;;;;;;;;;14.50;99.90;;;;;;5033399;28;19913;-69
2022/05/13 07:05:22;;;;;;;;;;;14.60;99.90;;;;;;5062982;28;19909;-72
2022/05/13 07:07:48;;;;;;;;;;;14.70;99.90;;;;;;5032746;28;20004;-69
2022/05/13 07:10:14;;;;;;;;;;;14.70;99.90;;;;;;5027841;28;20324;-69
2022/05/13 07:12:40;;;;;;;;;;;14.90;99.90;;;;;;5032555;28;19917;-69
2022/05/13 07:15:07;;;;;;;;;;;15.10;99.90;;;;;;5035798;28;19917;-72
2022/05/13 07:17:32;;;;;;;;;;;15.10;99.90;;;;;;5031439;28;19968;-69
2022/05/13 07:19:58;;;;;;;;;;;15.00;99.90;;;;;;5032707;28;20526;-69
2022/05/13 07:22:23;;;;;;;;;;;15.20;99.90;;;;;;5034177;28;19948;-69
2022/05/13 07:24:51;;;;;;;;;;;15.30;99.90;;;;;;5033150;28;19917;-69
2022/05/13 07:27:16;;;;;;;;;;;15.60;99.90;;;;;;5034147;28;20008;-70
2022/05/13 07:29:42;;;;;;;;;;;15.90;99.90;;;;;;5033734;28;20275;-69
2022/05/13 07:32:08;;;;;;;;;;;16.10;99.90;;;;;;5033443;28;19924;-69
2022/05/13 07:34:34;;;;;;;;;;;16.30;99.90;;;;;;5031462;28;20019;-69
2022/05/13 07:36:59;;;;;;;;;;;16.50;99.90;;;;;;5035840;28;20366;-69
2022/05/13 07:42:10;;;;;;;;;;;16.30;99.90;;;;;;5035794;28;19920;-69
2022/05/13 07:44:36;;;;;;;;;;;16.40;99.90;;;;;;5035462;28;19913;-69
2022/05/13 07:47:02;;;;;;;;;;;16.70;99.90;;;;;;5036669;28;19917;-69
2022/05/13 07:49:28;;;;;;;;;;;17.20;99.90;;;;;;5036476;28;19932;-70
2022/05/13 07:51:53;;;;;;;;;;;17.30;99.90;;;;;;5034969;28;20004;-69
2022/05/13 07:54:19;;;;;;;;;;;17.30;99.90;;;;;;5035115;28;19952;-69
2022/05/13 07:56:44;;;;;;;;;;;17.40;99.90;;;;;;5033750;28;20336;-69
2022/05/13 07:59:10;;;;;;;;;;;17.50;99.90;;;;;;5036390;28;19936;-69
2022/05/13 08:01:35;;;;;;;;;;;17.30;99.90;;;;;;5023855;28;19920;-69
2022/05/13 08:04:01;;;;;;;;;;;17.50;99.90;;;;;;5016466;28;19914;-69
2022/05/13 08:06:27;;;;;;;;;;;17.30;99.90;;;;;;5031868;28;19924;-69
2022/05/13 08:08:58;;;;;;;;;;;17.20;99.90;;;;;;5035890;28;19916;-69
2022/05/13 08:11:25;;;;;;;;;;;17.10;99.90;;;;;;5033635;28;19932;-69
2022/05/13 08:13:51;;;;;;;;;;;17.30;99.90;;;;;;5036063;28;19921;-70
2022/05/13 08:16:24;;;;;;;;;;;17.40;99.90;;;;;;5035898;28;19921;-69
2022/05/13 08:18:50;;;;;;;;;;;17.30;99.90;;;;;;5036264;28;20197;-69
2022/05/13 08:21:16;;;;;;;;;;;17.30;99.90;;;;;;5031786;28;19918;-69
2022/05/13 08:23:42;;;;;;;;;;;17.50;99.90;;;;;;5023187;28;20371;-69
2022/05/13 08:26:08;;;;;;;;;;;17.40;99.90;;;;;;5031479;28;19924;-70
2022/05/13 08:28:34;;;;;;;;;;;17.10;99.90;;;;;;5032336;28;19960;-69
2022/05/13 08:31:00;;;;;;;;;;;17.00;99.90;;;;;;5035607;28;19990;-71
2022/05/13 08:33:25;;;;;;;;;;;16.90;99.90;;;;;;5034422;28;19913;-69
2022/05/13 08:35:52;;;;;;;;;;;16.70;99.90;;;;;;5035708;28;20446;-69
2022/05/13 08:38:21;;;;;;;;;;;16.80;99.90;;;;;;5035850;28;20216;-69
2022/05/13 08:40:50;;;;;;;;;;;16.90;99.90;;;;;;5036013;28;19919;-69
2022/05/13 08:43:17;;;;;;;;;;;17.20;99.90;;;;;;5033475;28;19913;-69
2022/05/13 08:45:52;;;;;;;;;;;17.20;99.90;;;;;;5034463;28;20312;-69
2022/05/13 08:48:23;;;;;;;;;;;17.20;99.90;;;;;;5035474;28;19948;-69
2022/05/13 08:50:49;;;;;;;;;;;17.30;99.90;;;;;;5035448;28;19909;-69
2022/05/13 08:53:20;;;;;;;;;;;17.60;99.90;;;;;;5024403;28;19920;-69
2022/05/13 08:55:47;;;;;;;;;;;17.70;99.90;;;;;;5015764;28;20252;-69
2022/05/13 08:58:17;;;;;;;;;;;17.80;99.90;;;;;;5047578;28;19921;-69
2022/05/13 09:00:44;;;;;;;;;;;17.80;99.90;;;;;;5015733;28;19910;-70
2022/05/13 09:03:18;;;;;;;;;;;18.10;99.90;;;;;;5015912;28;19925;-69
2022/05/13 09:05:43;;;;;;;;;;;18.70;99.90;;;;;;5015968;28;19931;-69
2022/05/13 09:08:09;;;;;;;;;;;19.10;99.90;;;;;;5021612;28;20317;-69
2022/05/13 09:10:41;;;;;;;;;;;19.30;99.90;;;;;;5030406;28;19939;-69
2022/05/13 09:13:27;;;;;;;;;;;19.60;99.90;;;;;;5015643;28;19925;-69
2022/05/13 09:15:55;;;;;;;;;;;19.30;99.90;;;;;;5015280;28;19932;-69
2022/05/13 09:18:24;;;;;;;;;;;18.90;99.90;;;;;;5015665;28;19914;-69
2022/05/13 09:20:51;;;;;;;;;;;18.50;99.90;;;;;;5015808;28;20312;-69
2022/05/13 09:23:18;;;;;;;;;;;18.60;99.90;;;;;;5015343;28;19917;-69
2022/05/13 09:25:47;;;;;;;;;;;18.80;99.90;;;;;;5015453;28;19910;-70
2022/05/13 09:28:13;;;;;;;;;;;18.50;99.90;;;;;;5015351;28;19910;-71
2022/05/13 09:30:40;;;;;;;;;;;18.40;99.90;;;;;;5030724;28;19913;-70
2022/05/13 09:33:21;;;;;;;;;;;18.20;99.90;;;;;;5031646;28;19913;-69
2022/05/13 09:35:47;;;;;;;;;;;18.30;99.90;;;;;;5033538;28;19924;-69
2022/05/13 09:38:15;;;;;;;;;;;19.00;99.90;;;;;;5032679;28;19913;-69
2022/05/13 09:40:41;;;;;;;;;;;19.50;99.90;;;;;;5032809;28;19937;-69
2022/05/13 09:43:07;;;;;;;;;;;20.00;99.90;;;;;;5028084;28;19917;-69
2022/05/13 09:45:33;;;;;;;;;;;20.20;99.90;;;;;;5031247;28;19916;-70
2022/05/13 09:47:59;;;;;;;;;;;20.20;99.90;;;;;;5033861;28;19966;-69
2022/05/13 09:50:29;;;;;;;;;;;20.00;99.90;;;;;;5032022;28;19995;-69
2022/05/13 09:53:02;;;;;;;;;;;19.60;99.90;;;;;;5028295;28;19960;-69
2022/05/13 09:55:38;;;;;;;;;;;19.50;99.90;;;;;;5025713;28;20323;-69
2022/05/13 09:58:07;;;;;;;;;;;19.80;99.90;;;;;;5033213;28;19921;-69
2022/05/13 10:00:38;;;;;;;;;;;20.10;99.40;;;;;;5028082;28;19913;-69
2022/05/13 10:03:08;;;;;;;;;;;20.40;99.90;;;;;;5030798;28;19929;-69
2022/05/13 10:05:34;;;;;;;;;;;20.60;99.90;;;;;;5034787;28;19920;-69
2022/05/13 10:08:01;;;;;;;;;;;20.80;98.70;;;;;;5068990;28;19921;-73
2022/05/13 10:16:00;;;;;;;;;;;18.70;99.90;;;;;;5031900;28;20378;-69
2022/05/13 10:18:27;;;;;;;;;;;18.30;99.90;;;;;;5016194;28;20320;-69
2022/05/13 10:20:59;;;;;;;;;;;18.00;99.90;;;;;;5031822;28;19921;-69
2022/05/13 10:23:30;;;;;;;;;;;17.70;99.90;;;;;;5033862;28;19917;-69
2022/05/13 10:26:02;;;;;;;;;;;17.50;99.90;;;;;;5035366;28;19924;-69
2022/05/13 10:28:31;;;;;;;;;;;17.90;99.90;;;;;;5034292;28;19913;-73
2022/05/13 10:31:03;;;;;;;;;;;18.60;99.90;;;;;;5035920;28;19917;-69
2022/05/13 10:33:33;;;;;;;;;;;19.00;99.90;;;;;;5034179;28;20327;-69
2022/05/13 10:36:15;;;;;;;;;;;19.10;99.90;;;;;;5033577;28;20334;-69
2022/05/13 10:38:43;;;;;;;;;;;18.90;99.90;;;;;;5026619;28;20304;-69
2022/05/13 10:41:27;;;;;;;;;;;18.70;99.90;;;;;;5035046;28;19913;-69
2022/05/13 10:43:57;;;;;;;;;;;18.90;99.90;;;;;;5034251;28;19966;-69
2022/05/13 10:46:48;;;;;;;;;;;19.00;99.90;;;;;;5035090;28;19952;-69
2022/05/13 10:49:14;;;;;;;;;;;19.10;99.90;;;;;;5030322;28;19920;-70
2022/05/13 10:51:47;;;;;;;;;;;19.10;99.90;;;;;;5033677;28;19921;-69
2022/05/13 10:54:24;;;;;;;;;;;19.20;99.90;;;;;;5033968;28;19913;-69
2022/05/13 10:57:08;;;;;;;;;;;19.30;99.90;;;;;;5033681;28;19921;-69
2022/05/13 10:59:38;;;;;;;;;;;19.30;99.90;;;;;;5036265;28;19920;-69
2022/05/13 11:02:15;;;;;;;;;;;19.60;99.90;;;;;;5034053;28;19921;-69
2022/05/13 11:04:46;;;;;;;;;;;19.70;99.90;;;;;;5034186;28;20380;-70
2022/05/13 11:07:31;;;;;;;;;;;20.10;99.80;;;;;;5037510;28;19917;-69
2022/05/13 11:10:16;;;;;;;;;;;20.20;98.70;;;;;;5037179;28;19913;-69
2022/05/13 11:12:41;;;;;;;;;;;20.20;99.20;;;;;;5056983;28;19925;-69
2022/05/13 11:15:25;;;;;;;;;;;20.30;97.80;;;;;;5048425;28;20260;-69
2022/05/13 11:18:11;;;;;;;;;;;19.90;98.60;;;;;;5017224;28;19940;-69
2022/05/13 11:20:52;;;;;;;;;;;19.50;98.50;;;;;;5026844;28;20371;-70
2022/05/13 11:23:26;;;;;;;;;;;19.20;99.30;;;;;;5030233;28;19986;-72
2022/05/13 11:26:05;;;;;;;;;;;19.30;99.90;;;;;;5036964;28;20224;-70
2022/05/13 11:28:49;;;;;;;;;;;19.40;99.90;;;;;;5021842;28;20006;-69
2022/05/13 11:31:17;;;;;;;;;;;19.70;98.80;;;;;;5026367;28;19913;-69
2022/05/13 11:33:51;;;;;;;;;;;20.00;98.40;;;;;;5054154;28;19967;-69
2022/05/13 11:36:20;;;;;;;;;;;19.90;98.30;;;;;;5016338;28;20336;-69
2022/05/13 11:39:01;;;;;;;;;;;19.60;98.10;;;;;;5017662;28;20328;-69
2022/05/13 11:41:33;;;;;;;;;;;19.60;99.00;;;;;;5034364;28;20224;-69
2022/05/13 11:43:58;;;;;;;;;;;19.70;99.70;;;;;;5022889;28;19920;-71
2022/05/13 11:46:31;;;;;;;;;;;20.10;99.60;;;;;;5016885;28;19909;-69
2022/05/13 11:49:06;;;;;;;;;;;20.30;96.80;;;;;;5025489;28;20330;-69
2022/05/13 11:51:34;;;;;;;;;;;20.40;97.50;;;;;;5032998;28;19924;-69
2022/05/13 11:54:00;;;;;;;;;;;20.50;98.70;;;;;;5025595;28;19919;-69
2022/05/13 11:56:31;;;;;;;;;;;20.80;98.00;;;;;;5048543;28;20223;-69
2022/05/13 11:59:11;;;;;;;;;;;20.70;97.00;;;;;;5017195;28;19913;-69
2022/05/13 12:01:45;;;;;;;;;;;20.20;97.70;;;;;;5016642;28;19924;-69
2022/05/13 12:04:11;;;;;;;;;;;20.00;98.60;;;;;;5024474;28;19909;-69
2022/05/13 12:06:52;;;;;;;;;;;19.90;98.40;;;;;;5062351;28;19940;-69
2022/05/13 12:09:22;;;;;;;;;;;19.90;99.10;;;;;;5027100;28;19917;-69
2022/05/13 12:12:07;;;;;;;;;;;19.90;99.30;;;;;;5061140;28;19921;-69
2022/05/13 12:14:42;;;;;;;;;;;19.80;97.10;;;;;;5036135;28;19963;-69
2022/05/13 12:17:11;;;;;;;;;;;19.50;98.00;;;;;;5035962;28;19921;-69
2022/05/13 12:19:55;;;;;;;;;;;19.50;98.60;;;;;;5025422;28;19932;-69
2022/05/13 12:22:21;;;;;;;;;;;19.50;98.60;;;;;;5025445;28;19961;-69
2022/05/13 12:24:58;;;;;;;;;;;19.60;98.20;;;;;;5028225;28;19951;-69
2022/05/13 12:27:32;;;;;;;;;;;19.40;98.90;;;;;;5029774;28;20208;-69
2022/05/13 12:30:16;;;;;;;;;;;19.40;99.00;;;;;;5027104;28;19948;-71
2022/05/13 12:32:44;;;;;;;;;;;19.90;99.20;;;;;;5026100;28;19913;-69
2022/05/13 12:38:02;;;;;;;;;;;19.60;99.40;;;;;;5035591;28;20239;-69
2022/05/13 12:40:35;;;;;;;;;;;19.30;98.50;;;;;;5024517;28;19931;-69
2022/05/13 12:43:18;;;;;;;;;;;19.10;99.00;;;;;;5030054;28;20251;-69
2022/05/13 12:46:03;;;;;;;;;;;19.00;99.00;;;;;;5028845;28;19913;-69
2022/05/13 12:48:28;;;;;;;;;;;19.20;99.40;;;;;;5033353;28;19919;-70
2022/05/13 12:51:09;;;;;;;;;;;19.30;98.20;;;;;;5047289;28;19996;-69
2022/05/13 12:53:40;;;;;;;;;;;19.60;99.00;;;;;;5031674;28;19913;-69
2022/05/13 12:56:07;;;;;;;;;;;19.90;99.20;;;;;;5034426;28;19917;-69
2022/05/13 12:58:33;;;;;;;;;;;19.90;98.70;;;;;;5019689;28;20000;-70
2022/05/13 13:01:00;;;;;;;;;;;20.00;99.50;;;;;;5031480;28;20273;-72
2022/05/13 13:03:26;;;;;;;;;;;20.30;98.70;;;;;;5034485;28;20004;-69
2022/05/13 13:05:57;;;;;;;;;;;20.40;98.30;;;;;;5033643;28;20003;-69
2022/05/13 13:08:24;;;;;;;;;;;20.20;98.20;;;;;;5035523;28;20274;-70
2022/05/13 13:11:09;;;;;;;;;;;20.30;98.40;;;;;;5031184;28;20323;-69
2022/05/13 13:13:49;;;;;;;;;;;20.40;97.80;;;;;;5033703;28;19921;-69
2022/05/13 13:16:31;;;;;;;;;;;20.00;98.20;;;;;;5034034;28;19913;-69
2022/05/13 13:19:08;;;;;;;;;;;19.50;98.90;;;;;;5019382;28;19929;-69
2022/05/13 13:21:33;;;;;;;;;;;19.30;99.00;;;;;;5015722;28;20312;-69
2022/05/13 13:24:00;;;;;;;;;;;19.30;99.50;;;;;;5014427;28;19992;-69
2022/05/13 13:26:25;;;;;;;;;;;19.30;99.50;;;;;;5015689;28;20040;-69
2022/05/13 13:28:52;;;;;;;;;;;19.30;99.20;;;;;;5026356;28;20011;-69
2022/05/13 13:31:25;;;;;;;;;;;19.10;99.60;;;;;;5035370;28;19932;-69
2022/05/13 13:33:52;;;;;;;;;;;19.10;99.20;;;;;;5035072;28;19909;-69
2022/05/13 13:36:22;;;;;;;;;;;19.30;98.40;;;;;;5033054;28;21872;-69
2022/05/13 13:38:50;;;;;;;;;;;19.40;98.70;;;;;;5035359;28;20010;-69
2022/05/13 13:41:33;;;;;;;;;;;19.80;98.30;;;;;;5037462;28;20315;-69
2022/05/13 13:44:00;;;;;;;;;;;19.90;97.90;;;;;;5039026;28;19909;-69
2022/05/13 13:46:34;;;;;;;;;;;20.00;98.10;;;;;;5037048;28;20311;-72
2022/05/13 13:49:01;;;;;;;;;;;20.00;97.50;;;;;;5035088;28;20031;-73
2022/05/13 13:51:27;;;;;;;;;;;20.20;96.90;;;;;;5033539;28;19925;-69
2022/05/13 13:54:00;;;;;;;;;;;20.00;96.20;;;;;;5033738;28;20452;-69
2022/05/13 13:56:26;;;;;;;;;;;19.50;97.10;;;;;;5034610;28;19921;-73
2022/05/13 13:58:54;;;;;;;;;;;19.40;97.50;;;;;;5031542;28;20219;-69
2022/05/13 14:01:22;;;;;;;;;;;19.50;98.10;;;;;;5063355;28;19913;-69
2022/05/13 14:03:49;;;;;;;;;;;19.80;98.00;;;;;;5034225;28;19913;-69
2022/05/13 14:06:22;;;;;;;;;;;20.20;97.10;;;;;;5031470;28;19913;-69
2022/05/13 14:08:52;;;;;;;;;;;20.30;97.20;;;;;;5033863;28;19913;-69
2022/05/13 14:11:19;;;;;;;;;;;20.20;97.70;;;;;;5025783;28;19968;-70
2022/05/13 14:13:47;;;;;;;;;;;20.10;96.10;;;;;;5033933;28;19921;-69
2022/05/13 14:16:24;;;;;;;;;;;19.80;97.90;;;;;;5031507;28;19914;-73
2022/05/13 14:18:54;;;;;;;;;;;20.00;98.10;;;;;;5059913;28;19913;-69
2022/05/13 14:21:30;;;;;;;;;;;20.00;96.10;;;;;;5027342;28;19909;-69
2022/05/13 14:24:03;;;;;;;;;;;19.60;97.00;;;;;;5027397;28;20213;-69
2022/05/13 14:26:29;;;;;;;;;;;19.40;96.70;;;;;;5031598;28;19917;-69
2022/05/13 14:28:55;;;;;;;;;;;19.30;98.10;;;;;;5024565;28;19925;-69
2022/05/13 14:31:22;;;;;;;;;;;19.30;98.00;;;;;;5035293;28;19917;-69
2022/05/13 14:33:52;;;;;;;;;;;19.30;98.00;;;;;;5034345;28;19947;-69
2022/05/13 14:36:20;;;;;;;;;;;19.70;97.90;;;;;;5033573;28;19917;-69
2022/05/13 14:41:49;;;;;;;;;;;20.10;98.10;;;;;;5035774;28;20070;-69
2022/05/13 14:44:28;;;;;;;;;;;20.30;98.00;;;;;;5034874;28;19927;-69
2022/05/13 14:46:55;;;;;;;;;;;20.20;97.50;;;;;;5035004;28;19953;-70
2022/05/13 14:49:31;;;;;;;;;;;20.10;96.60;;;;;;5032712;28;19917;-69
2022/05/13 14:51:57;;;;;;;;;;;19.90;96.20;;;;;;5031637;28;20323;-69